sensor_id;sensor_type;location;lat;lon;timestamp;pressure;altitude;pressure_sealevel;temperature;humidity
17781;BME280;8498;52.516;13.790;2024-01-11T00:01:11;102689.13;;;-7.08;84.52
17781;BME280;8498;52.516;13.790;2024-01-11T00:06:42;102696.38;;;-7.22;85.09
17781;BME280;8498;52.516;13.790;2024-01-11T00:12:05;102686.25;;;-7.16;85.11
17781;BME280;8498;52.516;13.790;2024-01-11T00:17:27;102662.56;;;-7.04;85.14
17781;BME280;8498;52.516;13.790;2024-01-11T00:22:50;102647.00;;;-6.82;85.66
17781;BME280;8498;52.516;13.790;2024-01-11T00:28:13;102650.50;;;-6.80;85.07
17781;BME280;8498;52.516;13.790;2024-01-11T00:33:35;102646.88;;;-6.85;86.18
17781;BME280;8498;52.516;13.790;2024-01-11T00:38:57;102613.97;;;-6.65;86.55
17781;BME280;8498;52.516;13.790;2024-01-11T00:44:19;102609.81;;;-6.33;86.77
17781;BME280;8498;52.516;13.790;2024-01-11T00:49:42;102609.91;;;-6.30;85.85
17781;BME280;8498;52.516;13.790;2024-01-11T00:55:05;102610.13;;;-6.24;86.13
17781;BME280;8498;52.516;13.790;2024-01-11T01:00:27;102598.03;;;-6.25;89.24
17781;BME280;8498;52.516;13.790;2024-01-11T01:05:50;102561.06;;;-6.21;92.52
17781;BME280;8498;52.516;13.790;2024-01-11T01:11:13;102581.56;;;-5.99;92.73
17781;BME280;8498;52.516;13.790;2024-01-11T01:16:35;102576.84;;;-5.83;93.16
17781;BME280;8498;52.516;13.790;2024-01-11T01:21:57;102569.22;;;-5.77;93.73
17781;BME280;8498;52.516;13.790;2024-01-11T01:27:20;102594.94;;;-5.83;94.80
17781;BME280;8498;52.516;13.790;2024-01-11T01:32:42;102600.94;;;-5.84;96.40
17781;BME280;8498;52.516;13.790;2024-01-11T01:38:04;102574.72;;;-5.67;96.70
17781;BME280;8498;52.516;13.790;2024-01-11T01:43:27;102592.94;;;-5.64;97.64
17781;BME280;8498;52.516;13.790;2024-01-11T01:48:51;102597.28;;;-5.63;96.73
17781;BME280;8498;52.516;13.790;2024-01-11T01:54:14;102615.63;;;-5.55;98.31
17781;BME280;8498;52.516;13.790;2024-01-11T01:59:38;102627.00;;;-5.48;98.39
17781;BME280;8498;52.516;13.790;2024-01-11T02:05:01;102633.84;;;-5.52;100.00
17781;BME280;8498;52.516;13.790;2024-01-11T02:10:24;102630.69;;;-5.42;100.00
17781;BME280;8498;52.516;13.790;2024-01-11T02:15:47;102618.97;;;-5.28;100.00
17781;BME280;8498;52.516;13.790;2024-01-11T02:21:11;102603.06;;;-5.08;100.00
17781;BME280;8498;52.516;13.790;2024-01-11T02:26:35;102625.06;;;-4.94;100.00
17781;BME280;8498;52.516;13.790;2024-01-11T02:32:00;102622.66;;;-4.87;100.00
17781;BME280;8498;52.516;13.790;2024-01-11T02:37:23;102598.97;;;-4.67;100.00
17781;BME280;8498;52.516;13.790;2024-01-11T02:42:46;102574.19;;;-4.55;100.00
17781;BME280;8498;52.516;13.790;2024-01-11T02:48:08;102567.25;;;-4.56;100.00
17781;BME280;8498;52.516;13.790;2024-01-11T02:53:30;102564.03;;;-4.46;100.00
17781;BME280;8498;52.516;13.790;2024-01-11T02:58:56;102570.56;;;-4.63;100.00
17781;BME280;8498;52.516;13.790;2024-01-11T03:04:18;102574.28;;;-4.52;100.00
17781;BME280;8498;52.516;13.790;2024-01-11T03:09:41;102577.78;;;-4.50;100.00
17781;BME280;8498;52.516;13.790;2024-01-11T03:15:03;102571.72;;;-4.50;100.00
17781;BME280;8498;52.516;13.790;2024-01-11T03:20:26;102587.63;;;-4.36;100.00
17781;BME280;8498;52.516;13.790;2024-01-11T03:25:48;102568.00;;;-4.24;100.00
17781;BME280;8498;52.516;13.790;2024-01-11T03:31:11;102581.25;;;-4.12;100.00
17781;BME280;8498;52.516;13.790;2024-01-11T03:36:33;102565.16;;;-3.97;100.00
17781;BME280;8498;52.516;13.790;2024-01-11T03:41:55;102546.31;;;-3.87;100.00
17781;BME280;8498;52.516;13.790;2024-01-11T03:47:17;102551.88;;;-3.68;100.00
17781;BME280;8498;52.516;13.790;2024-01-11T03:52:42;102528.56;;;-3.67;100.00
17781;BME280;8498;52.516;13.790;2024-01-11T03:58:04;102537.91;;;-3.74;100.00
17781;BME280;8498;52.516;13.790;2024-01-11T04:03:27;102512.25;;;-3.58;100.00
17781;BME280;8498;52.516;13.790;2024-01-11T04:08:49;102513.41;;;-3.44;100.00
17781;BME280;8498;52.516;13.790;2024-01-11T04:14:11;102529.53;;;-3.60;100.00
17781;BME280;8498;52.516;13.790;2024-01-11T04:19:34;102517.28;;;-3.67;100.00
17781;BME280;8498;52.516;13.790;2024-01-11T04:24:56;102545.19;;;-3.57;100.00
17781;BME280;8498;52.516;13.790;2024-01-11T04:30:18;102521.31;;;-3.38;100.00
17781;BME280;8498;52.516;13.790;2024-01-11T04:35:41;102554.34;;;-3.31;100.00
17781;BME280;8498;52.516;13.790;2024-01-11T04:41:10;102524.03;;;-3.30;100.00
17781;BME280;8498;52.516;13.790;2024-01-11T04:46:32;102524.03;;;-3.30;100.00
17781;BME280;8498;52.516;13.790;2024-01-11T04:51:54;102495.59;;;-3.23;100.00
17781;BME280;8498;52.516;13.790;2024-01-11T04:57:17;102501.59;;;-3.27;100.00
17781;BME280;8498;52.516;13.790;2024-01-11T05:02:39;102507.81;;;-3.17;100.00
17781;BME280;8498;52.516;13.790;2024-01-11T05:08:02;102501.03;;;-3.08;100.00
17781;BME280;8498;52.516;13.790;2024-01-11T05:13:25;102516.50;;;-3.17;100.00
17781;BME280;8498;52.516;13.790;2024-01-11T05:18:47;102472.38;;;-3.11;100.00
17781;BME280;8498;52.516;13.790;2024-01-11T05:24:10;102508.00;;;-3.07;100.00
17781;BME280;8498;52.516;13.790;2024-01-11T05:29:33;102492.50;;;-3.01;100.00
17781;BME280;8498;52.516;13.790;2024-01-11T05:34:56;102472.59;;;-2.99;100.00
17781;BME280;8498;52.516;13.790;2024-01-11T05:40:18;102484.66;;;-3.04;100.00
17781;BME280;8498;52.516;13.790;2024-01-11T05:45:40;102483.13;;;-2.91;100.00
17781;BME280;8498;52.516;13.790;2024-01-11T05:51:09;102487.56;;;-2.84;100.00
17781;BME280;8498;52.516;13.790;2024-01-11T05:56:31;102494.56;;;-2.80;100.00
17781;BME280;8498;52.516;13.790;2024-01-11T06:01:54;102491.19;;;-2.74;100.00
17781;BME280;8498;52.516;13.790;2024-01-11T06:07:16;102499.91;;;-2.72;100.00
17781;BME280;8498;52.516;13.790;2024-01-11T06:12:39;102474.94;;;-2.61;100.00
17781;BME280;8498;52.516;13.790;2024-01-11T06:18:02;102489.00;;;-2.45;100.00
17781;BME280;8498;52.516;13.790;2024-01-11T06:23:27;102479.59;;;-2.36;100.00
17781;BME280;8498;52.516;13.790;2024-01-11T06:28:49;102490.84;;;-2.40;100.00
17781;BME280;8498;52.516;13.790;2024-01-11T06:34:12;102467.56;;;-2.28;100.00
17781;BME280;8498;52.516;13.790;2024-01-11T06:39:34;102454.69;;;-2.18;100.00
17781;BME280;8498;52.516;13.790;2024-01-11T06:44:57;102451.25;;;-2.14;100.00
17781;BME280;8498;52.516;13.790;2024-01-11T06:50:19;102457.28;;;-2.18;100.00
17781;BME280;8498;52.516;13.790;2024-01-11T06:55:42;102438.28;;;-2.11;100.00
17781;BME280;8498;52.516;13.790;2024-01-11T07:01:05;102436.59;;;-2.08;100.00
17781;BME280;8498;52.516;13.790;2024-01-11T07:06:28;102428.84;;;-2.02;100.00
17781;BME280;8498;52.516;13.790;2024-01-11T07:11:50;102450.59;;;-1.98;100.00
17781;BME280;8498;52.516;13.790;2024-01-11T07:17:13;102454.06;;;-1.96;100.00
17781;BME280;8498;52.516;13.790;2024-01-11T07:22:35;102443.69;;;-1.93;100.00
17781;BME280;8498;52.516;13.790;2024-01-11T07:28:02;102444.63;;;-1.85;100.00
17781;BME280;8498;52.516;13.790;2024-01-11T07:33:24;102448.03;;;-1.94;100.00
17781;BME280;8498;52.516;13.790;2024-01-11T07:38:47;102438.63;;;-1.81;100.00
17781;BME280;8498;52.516;13.790;2024-01-11T07:44:10;102446.56;;;-1.69;100.00
17781;BME280;8498;52.516;13.790;2024-01-11T07:49:32;102447.63;;;-1.49;100.00
17781;BME280;8498;52.516;13.790;2024-01-11T07:54:55;102421.63;;;-1.45;100.00
17781;BME280;8498;52.516;13.790;2024-01-11T08:00:18;102421.63;;;-1.42;100.00
17781;BME280;8498;52.516;13.790;2024-01-11T08:05:40;102439.13;;;-1.29;100.00
17781;BME280;8498;52.516;13.790;2024-01-11T08:11:03;102433.97;;;-1.20;100.00
17781;BME280;8498;52.516;13.790;2024-01-11T08:16:25;102423.50;;;-1.26;100.00
17781;BME280;8498;52.516;13.790;2024-01-11T08:21:48;102426.16;;;-1.20;100.00
17781;BME280;8498;52.516;13.790;2024-01-11T08:27:10;102429.72;;;-1.11;100.00
17781;BME280;8498;52.516;13.790;2024-01-11T08:32:32;102428.00;;;-1.07;100.00
17781;BME280;8498;52.516;13.790;2024-01-11T08:38:01;102415.03;;;-0.98;100.00
17781;BME280;8498;52.516;13.790;2024-01-11T08:43:26;102420.34;;;-0.86;100.00
17781;BME280;8498;52.516;13.790;2024-01-11T08:48:48;102419.41;;;-0.95;100.00
17781;BME280;8498;52.516;13.790;2024-01-11T08:54:11;102410.69;;;-0.93;100.00
17781;BME280;8498;52.516;13.790;2024-01-11T08:59:34;102375.97;;;-0.83;100.00
17781;BME280;8498;52.516;13.790;2024-01-11T09:04:57;102381.28;;;-0.67;100.00
17781;BME280;8498;52.516;13.790;2024-01-11T09:10:19;102384.84;;;-0.53;100.00
17781;BME280;8498;52.516;13.790;2024-01-11T09:15:42;102380.50;;;-0.48;100.00
17781;BME280;8498;52.516;13.790;2024-01-11T09:21:04;102393.56;;;-0.47;100.00
17781;BME280;8498;52.516;13.790;2024-01-11T09:26:26;102393.63;;;-0.38;100.00
17781;BME280;8498;52.516;13.790;2024-01-11T09:31:49;102395.41;;;-0.24;100.00
17781;BME280;8498;52.516;13.790;2024-01-11T09:37:11;102411.94;;;-0.28;100.00
17781;BME280;8498;52.516;13.790;2024-01-11T09:42:33;102390.13;;;-0.40;100.00
17781;BME280;8498;52.516;13.790;2024-01-11T09:47:56;102390.22;;;-0.14;100.00
17781;BME280;8498;52.516;13.790;2024-01-11T09:53:19;102392.84;;;-0.08;100.00
17781;BME280;8498;52.516;13.790;2024-01-11T09:58:47;102400.66;;;-0.18;100.00
17781;BME280;8498;52.516;13.790;2024-01-11T10:04:13;102396.34;;;-0.13;100.00
17781;BME280;8498;52.516;13.790;2024-01-11T10:09:36;102385.88;;;-0.12;100.00
17781;BME280;8498;52.516;13.790;2024-01-11T10:15:06;102368.47;;;-0.07;100.00
17781;BME280;8498;52.516;13.790;2024-01-11T10:20:32;102378.88;;;-0.19;100.00
17781;BME280;8498;52.516;13.790;2024-01-11T10:25:56;102375.44;;;-0.15;100.00
17781;BME280;8498;52.516;13.790;2024-01-11T10:31:21;102371.91;;;-0.18;100.00
17781;BME280;8498;52.516;13.790;2024-01-11T10:36:52;102384.13;;;-0.10;100.00
17781;BME280;8498;52.516;13.790;2024-01-11T10:42:19;102391.16;;;0.13;100.00
17781;BME280;8498;52.516;13.790;2024-01-11T10:47:55;102384.22;;;0.16;100.00
17781;BME280;8498;52.516;13.790;2024-01-11T10:53:31;102371.16;;;0.25;100.00
17781;BME280;8498;52.516;13.790;2024-01-11T10:58:57;102363.34;;;0.39;100.00
17781;BME280;8498;52.516;13.790;2024-01-11T11:04:20;102359.81;;;0.43;100.00
17781;BME280;8498;52.516;13.790;2024-01-11T11:09:46;102376.38;;;0.42;100.00
17781;BME280;8498;52.516;13.790;2024-01-11T11:15:13;102392.94;;;0.44;100.00
17781;BME280;8498;52.516;13.790;2024-01-11T11:20:35;102384.25;;;0.45;100.00
17781;BME280;8498;52.516;13.790;2024-01-11T11:25:57;102376.41;;;0.56;100.00
17781;BME280;8498;52.516;13.790;2024-01-11T11:31:37;102393.84;;;0.55;100.00
17781;BME280;8498;52.516;13.790;2024-01-11T11:36:59;102385.97;;;0.52;100.00
17781;BME280;8498;52.516;13.790;2024-01-11T11:42:22;102367.69;;;0.57;100.00
17781;BME280;8498;52.516;13.790;2024-01-11T11:47:45;102373.81;;;0.62;100.00
17781;BME280;8498;52.516;13.790;2024-01-11T11:53:10;102357.22;;;0.78;100.00
17781;BME280;8498;52.516;13.790;2024-01-11T11:58:34;102358.09;;;0.82;100.00
17781;BME280;8498;52.516;13.790;2024-01-11T12:03:57;102356.34;;;0.91;100.00
17781;BME280;8498;52.516;13.790;2024-01-11T12:09:19;102356.34;;;0.82;100.00
17781;BME280;8498;52.516;13.790;2024-01-11T12:14:44;102348.47;;;0.85;100.00
17781;BME280;8498;52.516;13.790;2024-01-11T12:20:09;102360.69;;;0.89;100.00
17781;BME280;8498;52.516;13.790;2024-01-11T12:25:31;102369.44;;;0.81;100.00
17781;BME280;8498;52.516;13.790;2024-01-11T12:30:54;102372.03;;;0.90;100.00
17781;BME280;8498;52.516;13.790;2024-01-11T12:36:16;102356.31;;;0.96;100.00
17781;BME280;8498;52.516;13.790;2024-01-11T12:41:39;102340.63;;;0.84;100.00
17781;BME280;8498;52.516;13.790;2024-01-11T12:47:02;102345.84;;;1.02;100.00
17781;BME280;8498;52.516;13.790;2024-01-11T12:52:24;102338.81;;;1.16;100.00
17781;BME280;8498;52.516;13.790;2024-01-11T12:57:51;102317.91;;;1.10;100.00
17781;BME280;8498;52.516;13.790;2024-01-11T13:03:25;102304.75;;;1.25;100.00
17781;BME280;8498;52.516;13.790;2024-01-11T13:08:49;102298.66;;;1.19;100.00
17781;BME280;8498;52.516;13.790;2024-01-11T13:14:12;102286.38;;;1.37;100.00
17781;BME280;8498;52.516;13.790;2024-01-11T13:19:41;102292.47;;;1.42;100.00
17781;BME280;8498;52.516;13.790;2024-01-11T13:25:04;102274.09;;;1.52;100.00
17781;BME280;8498;52.516;13.790;2024-01-11T13:30:26;102260.16;;;1.43;100.00
17781;BME280;8498;52.516;13.790;2024-01-11T13:35:49;102270.59;;;1.46;100.00
17781;BME280;8498;52.516;13.790;2024-01-11T13:41:12;102265.38;;;1.50;100.00
17781;BME280;8498;52.516;13.790;2024-01-11T13:46:35;102246.16;;;1.51;100.00
17781;BME280;8498;52.516;13.790;2024-01-11T13:51:58;102259.25;;;1.55;100.00
17781;BME280;8498;52.516;13.790;2024-01-11T13:57:23;102254.88;;;1.56;100.00
17781;BME280;8498;52.516;13.790;2024-01-11T14:02:46;102253.16;;;1.48;100.00
17781;BME280;8498;52.516;13.790;2024-01-11T14:08:09;102251.38;;;1.54;100.00
17781;BME280;8498;52.516;13.790;2024-01-11T14:13:32;102240.91;;;1.52;100.00
17781;BME280;8498;52.516;13.790;2024-01-11T14:18:54;102237.44;;;1.48;100.00
17781;BME280;8498;52.516;13.790;2024-01-11T14:24:17;102260.16;;;1.45;100.00
17781;BME280;8498;52.516;13.790;2024-01-11T14:29:52;102273.28;;;1.37;100.00
17781;BME280;8498;52.516;13.790;2024-01-11T14:35:14;102267.16;;;1.38;100.00
17781;BME280;8498;52.516;13.790;2024-01-11T14:40:37;102279.34;;;1.45;100.00
17781;BME280;8498;52.516;13.790;2024-01-11T14:45:59;102286.31;;;1.46;100.00
17781;BME280;8498;52.516;13.790;2024-01-11T14:51:22;102287.28;;;1.33;100.00
17781;BME280;8498;52.516;13.790;2024-01-11T14:56:46;102288.97;;;1.43;100.00
17781;BME280;8498;52.516;13.790;2024-01-11T15:02:08;102294.22;;;1.39;100.00
17781;BME280;8498;52.516;13.790;2024-01-11T15:07:32;102313.47;;;1.32;100.00
17781;BME280;8498;52.516;13.790;2024-01-11T15:12:55;102314.28;;;1.41;100.00
17781;BME280;8498;52.516;13.790;2024-01-11T15:18:18;102320.41;;;1.45;100.00
17781;BME280;8498;52.516;13.790;2024-01-11T15:23:41;102313.38;;;1.47;100.00
17781;BME280;8498;52.516;13.790;2024-01-11T15:29:03;102327.38;;;1.41;100.00
17781;BME280;8498;52.516;13.790;2024-01-11T15:34:26;102332.59;;;1.49;100.00
17781;BME280;8498;52.516;13.790;2024-01-11T15:39:49;102322.16;;;1.43;100.00
17781;BME280;8498;52.516;13.790;2024-01-11T15:45:11;102302.03;;;1.46;100.00
17781;BME280;8498;52.516;13.790;2024-01-11T15:50:33;102306.38;;;1.54;100.00
17781;BME280;8498;52.516;13.790;2024-01-11T15:55:56;102297.66;;;1.55;100.00
17781;BME280;8498;52.516;13.790;2024-01-11T16:01:18;102315.16;;;1.40;100.00
17781;BME280;8498;52.516;13.790;2024-01-11T16:06:41;102319.53;;;1.37;100.00
17781;BME280;8498;52.516;13.790;2024-01-11T16:12:05;102323.91;;;1.44;100.00
17781;BME280;8498;52.516;13.790;2024-01-11T16:17:28;102339.59;;;1.41;100.00
17781;BME280;8498;52.516;13.790;2024-01-11T16:22:52;102343.09;;;1.40;100.00
17781;BME280;8498;52.516;13.790;2024-01-11T16:28:14;102354.44;;;1.40;100.00
17781;BME280;8498;52.516;13.790;2024-01-11T16:33:37;102352.75;;;1.33;100.00
17781;BME280;8498;52.516;13.790;2024-01-11T16:39:01;102366.69;;;1.34;100.00
17781;BME280;8498;52.516;13.790;2024-01-11T16:44:25;102374.53;;;1.41;100.00
17781;BME280;8498;52.516;13.790;2024-01-11T16:49:48;102373.66;;;1.42;100.00
17781;BME280;8498;52.516;13.790;2024-01-11T16:55:10;102382.38;;;1.41;100.00
17781;BME280;8498;52.516;13.790;2024-01-11T17:00:33;102379.75;;;1.37;100.00
17781;BME280;8498;52.516;13.790;2024-01-11T17:05:55;102391.06;;;1.50;100.00
17781;BME280;8498;52.516;13.790;2024-01-11T17:11:19;102398.06;;;1.51;100.00
17781;BME280;8498;52.516;13.790;2024-01-11T17:16:41;102394.56;;;1.48;100.00
17781;BME280;8498;52.516;13.790;2024-01-11T17:22:04;102398.91;;;1.60;100.00
17781;BME280;8498;52.516;13.790;2024-01-11T17:27:30;102409.34;;;1.66;100.00
17781;BME280;8498;52.516;13.790;2024-01-11T17:32:54;102409.34;;;1.68;100.00
17781;BME280;8498;52.516;13.790;2024-01-11T17:38:16;102400.59;;;1.67;100.00
17781;BME280;8498;52.516;13.790;2024-01-11T17:43:39;102393.63;;;1.72;100.00
17781;BME280;8498;52.516;13.790;2024-01-11T17:49:02;102387.50;;;1.72;100.00
17781;BME280;8498;52.516;13.790;2024-01-11T17:54:25;102392.72;;;1.76;100.00
17781;BME280;8498;52.516;13.790;2024-01-11T17:59:49;102385.72;;;1.78;100.00
17781;BME280;8498;52.516;13.790;2024-01-11T18:05:11;102387.50;;;1.75;100.00
17781;BME280;8498;52.516;13.790;2024-01-11T18:10:36;102376.16;;;1.73;100.00
17781;BME280;8498;52.516;13.790;2024-01-11T18:15:59;102392.75;;;1.75;100.00
17781;BME280;8498;52.516;13.790;2024-01-11T18:21:21;102383.09;;;1.78;100.00
17781;BME280;8498;52.516;13.790;2024-01-11T18:26:44;102383.94;;;1.85;100.00
17781;BME280;8498;52.516;13.790;2024-01-11T18:32:07;102387.41;;;1.90;100.00
17781;BME280;8498;52.516;13.790;2024-01-11T18:37:29;102376.84;;;2.02;100.00
17781;BME280;8498;52.516;13.790;2024-01-11T18:42:51;102381.22;;;2.03;100.00
17781;BME280;8498;52.516;13.790;2024-01-11T18:48:14;102372.50;;;2.03;100.00
17781;BME280;8498;52.516;13.790;2024-01-11T18:53:38;102382.09;;;1.99;100.00
17781;BME280;8498;52.516;13.790;2024-01-11T18:59:03;102382.97;;;2.06;100.00
17781;BME280;8498;52.516;13.790;2024-01-11T19:04:25;102380.34;;;2.07;100.00
17781;BME280;8498;52.516;13.790;2024-01-11T19:09:48;102389.09;;;2.06;100.00
17781;BME280;8498;52.516;13.790;2024-01-11T19:15:10;102398.66;;;2.09;100.00
17781;BME280;8498;52.516;13.790;2024-01-11T19:20:32;102405.63;;;2.13;100.00
17781;BME280;8498;52.516;13.790;2024-01-11T19:25:56;102400.38;;;2.13;100.00
17781;BME280;8498;52.516;13.790;2024-01-11T19:31:19;102405.63;;;2.16;100.00
17781;BME280;8498;52.516;13.790;2024-01-11T19:36:42;102410.00;;;2.11;100.00
17781;BME280;8498;52.516;13.790;2024-01-11T19:42:04;102412.63;;;2.09;100.00
17781;BME280;8498;52.516;13.790;2024-01-11T19:47:26;102429.25;;;2.08;100.00
17781;BME280;8498;52.516;13.790;2024-01-11T19:52:49;102442.34;;;2.11;100.00
17781;BME280;8498;52.516;13.790;2024-01-11T19:58:13;102434.47;;;2.14;100.00
17781;BME280;8498;52.516;13.790;2024-01-11T20:03:35;102438.91;;;2.05;100.00
17781;BME280;8498;52.516;13.790;2024-01-11T20:08:58;102433.59;;;2.15;100.00
17781;BME280;8498;52.516;13.790;2024-01-11T20:14:21;102435.34;;;2.15;100.00
17781;BME280;8498;52.516;13.790;2024-01-11T20:19:43;102451.94;;;2.15;100.00
17781;BME280;8498;52.516;13.790;2024-01-11T20:25:06;102457.19;;;2.17;100.00
17781;BME280;8498;52.516;13.790;2024-01-11T20:30:29;102460.66;;;2.20;100.00
17781;BME280;8498;52.516;13.790;2024-01-11T20:35:51;102465.88;;;2.25;100.00
17781;BME280;8498;52.516;13.790;2024-01-11T20:41:15;102472.88;;;2.21;100.00
17781;BME280;8498;52.516;13.790;2024-01-11T20:46:37;102476.38;;;2.22;100.00
17781;BME280;8498;52.516;13.790;2024-01-11T20:52:00;102480.69;;;2.29;100.00
17781;BME280;8498;52.516;13.790;2024-01-11T20:57:23;102488.59;;;2.28;100.00
17781;BME280;8498;52.516;13.790;2024-01-11T21:02:46;102482.44;;;2.30;100.00
17781;BME280;8498;52.516;13.790;2024-01-11T21:08:08;102499.09;;;2.25;100.00
17781;BME280;8498;52.516;13.790;2024-01-11T21:13:31;102479.84;;;2.27;100.00
17781;BME280;8498;52.516;13.790;2024-01-11T21:18:53;102490.31;;;2.29;100.00
17781;BME280;8498;52.516;13.790;2024-01-11T21:24:18;102493.84;;;2.26;100.00
17781;BME280;8498;52.516;13.790;2024-01-11T21:29:42;102493.84;;;2.28;100.00
17781;BME280;8498;52.516;13.790;2024-01-11T21:35:05;102518.28;;;2.30;100.00
17781;BME280;8498;52.516;13.790;2024-01-11T21:40:28;102527.94;;;2.28;100.00
17781;BME280;8498;52.516;13.790;2024-01-11T21:45:51;102520.06;;;2.21;100.00
17781;BME280;8498;52.516;13.790;2024-01-11T21:51:13;102520.06;;;2.28;100.00
17781;BME280;8498;52.516;13.790;2024-01-11T21:56:36;102514.78;;;2.34;100.00
17781;BME280;8498;52.516;13.790;2024-01-11T22:01:59;102520.03;;;2.37;100.00
17781;BME280;8498;52.516;13.790;2024-01-11T22:07:21;102521.72;;;2.41;100.00
17781;BME280;8498;52.516;13.790;2024-01-11T22:12:44;102526.97;;;2.41;100.00
17781;BME280;8498;52.516;13.790;2024-01-11T22:18:07;102526.97;;;2.47;100.00
17781;BME280;8498;52.516;13.790;2024-01-11T22:23:31;102526.09;;;2.48;100.00
17781;BME280;8498;52.516;13.790;2024-01-11T22:28:54;102524.34;;;2.44;100.00
17781;BME280;8498;52.516;13.790;2024-01-11T22:34:16;102513.88;;;2.39;100.00
17781;BME280;8498;52.516;13.790;2024-01-11T22:39:38;102519.97;;;2.43;100.00
17781;BME280;8498;52.516;13.790;2024-01-11T22:45:00;102524.34;;;2.44;100.00
17781;BME280;8498;52.516;13.790;2024-01-11T22:50:23;102507.78;;;2.36;100.00
17781;BME280;8498;52.516;13.790;2024-01-11T22:55:45;102508.66;;;2.32;100.00
17781;BME280;8498;52.516;13.790;2024-01-11T23:01:07;102499.03;;;2.37;100.00
17781;BME280;8498;52.516;13.790;2024-01-11T23:06:30;102493.81;;;2.31;100.00
17781;BME280;8498;52.516;13.790;2024-01-11T23:11:52;102502.59;;;2.27;100.00
17781;BME280;8498;52.516;13.790;2024-01-11T23:17:15;102510.47;;;2.27;100.00
17781;BME280;8498;52.516;13.790;2024-01-11T23:22:38;102503.41;;;2.33;100.00
17781;BME280;8498;52.516;13.790;2024-01-11T23:28:02;102509.53;;;2.34;100.00
17781;BME280;8498;52.516;13.790;2024-01-11T23:33:24;102513.94;;;2.27;100.00
17781;BME280;8498;52.516;13.790;2024-01-11T23:38:47;102492.06;;;2.30;100.00
17781;BME280;8498;52.516;13.790;2024-01-11T23:44:14;102489.41;;;2.39;100.00
17781;BME280;8498;52.516;13.790;2024-01-11T23:49:36;102478.00;;;2.43;100.00
17781;BME280;8498;52.516;13.790;2024-01-11T23:54:58;102481.56;;;2.36;100.00
